Home   Weather   India   Kãnpur   Past weeks
Flag for India

Past Weather in Kãnpur, Uttar Pradesh, India — Yesterday and Last 2 Weeks

Currently: 93 °F. Broken clouds. (Weather station: Lucknow / Amausi, India). See more current weather

Past Weather in Kãnpur — Graph

°F

Kãnpur Temperature Yesterday

Maximum temperature yesterday: 95 °F (at 12:30 pm)
Minimum temperature yesterday: 81 °F (at 12:00 am)
Average temperature yesterday: 88 °F

High & Low Weather Summary for the Past Weeks

 TemperatureHumidityPressure
High100 °F (Jul 16, 1:00 pm)100% (Jul 12, 5:30 pm)29.71 "Hg (Jul 12, 5:30 pm)
Low79 °F (Jul 19, 2:30 am)57% (Jul 16, 1:30 pm)29.33 "Hg (Jul 22, 4:30 pm)
Average86 °F86%29.54 "Hg
* Reported Jul 9 1:30 pm — Jul 24 2:00 pm, Kãnpur. Weather by CustomWeather, © 2021

Note: Actual official high and low records may vary slightly from our data, if they occured in-between our weather recording intervals... More about our weather records

Kãnpur Weather History for the Previous 24 Hours

Scroll right to see more
 ConditionsComfort  
Time TempWeatherWind HumidityBarometerVisibility
2:00 pm
Sat, Jul 24
93 °FBroken clouds.14 mph75%29.45 "Hg3 mi
1:30 pm93 °FBroken clouds.14 mph75%29.45 "Hg3 mi
1:00 pm93 °FBroken clouds.15 mph75%29.45 "Hg3 mi
12:30 pm93 °FBroken clouds.15 mph75%29.47 "Hg3 mi
12:00 pm93 °FBroken clouds.15 mph75%29.47 "Hg3 mi
11:30 am93 °FBroken clouds.12 mph75%29.47 "Hg3 mi
11:00 am93 °FBroken clouds.12 mph71%29.47 "Hg3 mi
10:30 am93 °FBroken clouds.9 mph71%29.50 "Hg3 mi
10:00 am93 °FBroken clouds.7 mph71%29.50 "Hg3 mi
9:30 am91 °FBroken clouds.12 mph75%29.50 "Hg3 mi
9:00 am90 °FBroken clouds.9 mph79%29.50 "Hg3 mi
8:30 am88 °FBroken clouds.7 mph84%29.50 "Hg3 mi
8:00 am88 °FFog.7 mph89%29.50 "Hg2 mi
7:30 am88 °FFog.6 mph89%29.47 "Hg2 mi
7:00 am88 °FFog.6 mph84%29.47 "Hg2 mi
6:30 am86 °FFog.5 mph84%29.47 "Hg2 mi
6:00 am84 °FFog.5 mph89%29.45 "Hg2 mi
5:30 am84 °FFog.No wind89%29.45 "Hg2 mi
5:00 am84 °FFog.3 mph89%29.45 "Hg2 mi
4:30 am82 °FFog.5 mph94%29.45 "Hg2 mi
4:00 am82 °FFog.5 mph94%29.42 "Hg2 mi
3:30 am81 °FFog.2 mph94%29.45 "Hg2 mi
3:00 am79 °FThunderstorms. Partly cloudy.2 mph100%29.45 "Hg1 mi
2:30 am82 °FThunderstorms. Partly cloudy.7 mph94%29.45 "Hg1 mi
2:00 am86 °FFog.No wind89%29.45 "Hg2 mi
1:30 am86 °FFog.No wind89%29.47 "Hg2 mi
1:00 am86 °FFog.No wind89%29.47 "Hg2 mi
12:30 am86 °FFog.No wind89%29.47 "Hg2 mi
12:00 am84 °FFog.No wind94%29.47 "Hg2 mi
11:30 pm
Fri, Jul 23
86 °FFog.No wind84%29.47 "Hg2 mi
11:00 pm84 °FFog.No wind94%29.47 "Hg2 mi
10:30 pm86 °FFog.No wind89%29.45 "Hg2 mi
10:00 pm86 °FFog.No wind89%29.45 "Hg2 mi
9:30 pm86 °FPassing clouds.2 mph84%29.45 "Hg2 mi
9:00 pm86 °FPartly cloudy.2 mph84%29.45 "Hg2 mi
8:30 pm84 °FPartly cloudy.2 mph89%29.45 "Hg2 mi
8:00 pm86 °FPartly cloudy.2 mph89%29.42 "Hg2 mi
7:30 pm88 °FPartly cloudy.2 mph84%29.42 "Hg2 mi
7:00 pm91 °FScattered clouds.3 mph80%29.39 "Hg2 mi
5:30 pm93 °FBroken clouds.5 mph71%29.36 "Hg3 mi
5:00 pm93 °FBroken clouds.6 mph71%29.36 "Hg3 mi
4:30 pm93 °FBroken clouds.6 mph75%29.36 "Hg3 mi
4:00 pm93 °FFog.5 mph75%29.39 "Hg2 mi
3:30 pm90 °FFog.2 mph84%29.39 "Hg2 mi
3:00 pm86 °FThunderstorms. Broken clouds.9 mph89%29.39 "Hg2 mi
Weather by CustomWeather, © 2021

See weather overview